Time;durP1;ratioP1;P1;durP2;ratioP2;P2;SDS_P1;SDS_P2;PMS_P1;PMS_P2;Temp;Humidity;BMP_temperature;BMP_pressure;BME280_temperature;BME280_humidity;BME280_pressure;Samples;Min_cycle;Max_cycle;Signal;HPM_P1;HPM_P2
2022/10/09 00:00:28;;;;;;;;;;;;;;;;;;5029520;28;19916;-57
2022/10/09 00:02:54;;;;;;;;;;;;;;;;;;5032302;28;20371;-57
2022/10/09 00:05:22;;;;;;;;;;;;;;;;;;5028759;28;19913;-57
2022/10/09 00:07:47;;;;;;;;;;;;;;;;;;5029161;28;19917;-57
2022/10/09 00:10:12;;;;;;;;;;;;;;;;;;5028570;28;19924;-57
2022/10/09 00:12:38;;;;;;;;;;;;;;;;;;5027906;28;19913;-56
2022/10/09 00:15:03;;;;;;;;;;;;;;;;;;5028741;28;19963;-57
2022/10/09 00:17:28;;;;;;;;;;;;;;;;;;5029376;28;19913;-57
2022/10/09 00:19:54;;;;;;;;;;;;;;;;;;5028929;28;19956;-57
2022/10/09 00:22:19;;;;;;;;;;;;;;;;;;5022925;28;19914;-57
2022/10/09 00:24:44;;;;;;;;;;;;;;;;;;5026971;28;19920;-57
2022/10/09 00:27:09;;;;;;;;;;;;;;;;;;5029014;28;19920;-57
2022/10/09 00:29:35;;;;;;;;;;;;;;;;;;5028923;28;20338;-58
2022/10/09 00:32:00;;;;;;;;;;;;;;;;;;5028319;28;19958;-57
2022/10/09 00:34:25;;;;;;;;;;;;;;;;;;5030228;28;19919;-57
2022/10/09 00:36:50;;;;;;;;;;;;;;;;;;5029131;28;20393;-57
2022/10/09 00:39:16;;;;;;;;;;;;;;;;;;5029655;28;20082;-57
2022/10/09 00:41:41;;;;;;;;;;;;;;;;;;5026613;28;19913;-57
2022/10/09 00:44:25;;;;;;;;;;;;;;;;;;5027173;28;20577;-57
2022/10/09 00:46:50;;;;;;;;;;;;;;;;;;5029134;28;19945;-57
2022/10/09 00:49:22;;;;;;;;;;;;;;;;;;5030001;28;20331;-57
2022/10/09 00:51:48;;;;;;;;;;;;;;;;;;5029226;28;19917;-57
2022/10/09 00:54:16;;;;;;;;;;;;;;;;;;5032023;28;20366;-57
2022/10/09 00:56:42;;;;;;;;;;;;;;;;;;5031821;28;19982;-57
2022/10/09 00:59:08;;;;;;;;;;;;;;;;;;5029492;28;19921;-57
2022/10/09 01:01:33;;;;;;;;;;;;;;;;;;5025692;28;19912;-57
2022/10/09 01:03:58;;;;;;;;;;;;;;;;;;5029536;28;19923;-57
2022/10/09 01:06:47;;;;;;;;;;;;;;;;;;5028746;28;19913;-57
2022/10/09 01:09:14;;;;;;;;;;;;;;;;;;5026971;28;20310;-57
2022/10/09 01:11:49;;;;;;;;;;;;;;;;;;5032736;28;19963;-58
2022/10/09 01:14:17;;;;;;;;;;;;;;;;;;5033536;28;19919;-57
2022/10/09 01:17:05;;;;;;;;;;;;;;;;;;5031766;28;19913;-57
2022/10/09 01:19:44;;;;;;;;;;;;;;;;;;5032517;28;19916;-57
2022/10/09 01:22:22;;;;;;;;;;;;;;;;;;5037914;28;20309;-57
2022/10/09 01:24:53;;;;;;;;;;;;;;;;;;5032191;28;19959;-57
2022/10/09 01:27:23;;;;;;;;;;;;;;;;;;5032862;28;19996;-57
2022/10/09 01:29:51;;;;;;;;;;;;;;;;;;5032948;28;19919;-57
2022/10/09 01:32:18;;;;;;;;;;;;;;;;;;5032790;28;19913;-57
2022/10/09 01:34:45;;;;;;;;;;;;;;;;;;5032233;28;20299;-57
2022/10/09 01:37:12;;;;;;;;;;;;;;;;;;5030516;28;19964;-57
2022/10/09 01:39:38;;;;;;;;;;;;;;;;;;5032144;28;20015;-57
2022/10/09 01:42:04;;;;;;;;;;;;;;;;;;5033277;28;20015;-57
2022/10/09 01:44:30;;;;;;;;;;;;;;;;;;5033704;28;19920;-57
2022/10/09 01:46:56;;;;;;;;;;;;;;;;;;5032477;28;20374;-57
2022/10/09 01:49:21;;;;;;;;;;;;;;;;;;5033197;28;19955;-57
2022/10/09 01:51:58;;;;;;;;;;;;;;;;;;5032023;28;19913;-57
2022/10/09 01:54:33;;;;;;;;;;;;;;;;;;5027425;28;19923;-57
2022/10/09 01:57:01;;;;;;;;;;;;;;;;;;5030081;28;19909;-57
2022/10/09 01:59:27;;;;;;;;;;;;;;;;;;5036423;28;20481;-57
2022/10/09 02:01:54;;;;;;;;;;;;;;;;;;5030605;28;19917;-57
2022/10/09 02:04:19;;;;;;;;;;;;;;;;;;5032599;28;19939;-57
2022/10/09 02:06:46;;;;;;;;;;;;;;;;;;5032218;28;19909;-57
2022/10/09 02:09:12;;;;;;;;;;;;;;;;;;5032726;28;20282;-57
2022/10/09 02:11:39;;;;;;;;;;;;;;;;;;5036257;28;19917;-57
2022/10/09 02:14:05;;;;;;;;;;;;;;;;;;5032196;28;19912;-58
2022/10/09 02:16:38;;;;;;;;;;;;;;;;;;5031906;28;19924;-57
2022/10/09 02:19:07;;;;;;;;;;;;;;;;;;5032026;28;19917;-58
2022/10/09 02:21:35;;;;;;;;;;;;;;;;;;5031891;28;20196;-57
2022/10/09 02:24:00;;;;;;;;;;;;;;;;;;5032615;28;19913;-57
2022/10/09 02:26:26;;;;;;;;;;;;;;;;;;5031729;28;19913;-58
2022/10/09 02:28:51;;;;;;;;;;;;;;;;;;5031957;28;19909;-57
2022/10/09 02:31:21;;;;;;;;;;;;;;;;;;5030935;28;20289;-56
2022/10/09 02:33:52;;;;;;;;;;;;;;;;;;5032377;28;19913;-57
2022/10/09 02:36:18;;;;;;;;;;;;;;;;;;5031499;28;19917;-58
2022/10/09 02:38:43;;;;;;;;;;;;;;;;;;5032153;28;20371;-57
2022/10/09 02:41:08;;;;;;;;;;;;;;;;;;5031852;28;19999;-57
2022/10/09 02:43:33;;;;;;;;;;;;;;;;;;5032972;28;20023;-57
2022/10/09 02:45:59;;;;;;;;;;;;;;;;;;5029874;28;19971;-57
2022/10/09 02:48:24;;;;;;;;;;;;;;;;;;5030827;28;19913;-58
2022/10/09 02:50:49;;;;;;;;;;;;;;;;;;5031741;28;19912;-57
2022/10/09 02:53:15;;;;;;;;;;;;;;;;;;5029304;28;19913;-57
2022/10/09 02:55:40;;;;;;;;;;;;;;;;;;5030170;28;19962;-57
2022/10/09 02:58:05;;;;;;;;;;;;;;;;;;5031575;28;19916;-57
2022/10/09 03:00:31;;;;;;;;;;;;;;;;;;5031523;28;19960;-57
2022/10/09 03:02:56;;;;;;;;;;;;;;;;;;5029721;28;19913;-57
2022/10/09 03:05:21;;;;;;;;;;;;;;;;;;5030799;28;20000;-58
2022/10/09 03:07:50;;;;;;;;;;;;;;;;;;5031721;28;19923;-57
2022/10/09 03:10:19;;;;;;;;;;;;;;;;;;5030394;28;20053;-57
2022/10/09 03:12:44;;;;;;;;;;;;;;;;;;5030890;28;19913;-57
2022/10/09 03:15:10;;;;;;;;;;;;;;;;;;5030850;28;19935;-57
2022/10/09 03:17:36;;;;;;;;;;;;;;;;;;5030626;28;19940;-57
2022/10/09 03:20:01;;;;;;;;;;;;;;;;;;5036534;28;19909;-58
2022/10/09 03:22:27;;;;;;;;;;;;;;;;;;5030099;28;19960;-58
2022/10/09 03:24:53;;;;;;;;;;;;;;;;;;5031542;28;20319;-57
2022/10/09 03:27:18;;;;;;;;;;;;;;;;;;5030691;28;19999;-57
2022/10/09 03:29:43;;;;;;;;;;;;;;;;;;5030711;28;19913;-57
2022/10/09 03:32:08;;;;;;;;;;;;;;;;;;5030075;28;20302;-56
2022/10/09 03:34:34;;;;;;;;;;;;;;;;;;5030056;28;19913;-57
2022/10/09 03:36:59;;;;;;;;;;;;;;;;;;5030426;28;19909;-57
2022/10/09 03:39:24;;;;;;;;;;;;;;;;;;5030696;28;20298;-57
2022/10/09 03:41:49;;;;;;;;;;;;;;;;;;5030095;28;19919;-57
2022/10/09 03:44:15;;;;;;;;;;;;;;;;;;5030482;28;20401;-57
2022/10/09 03:46:40;;;;;;;;;;;;;;;;;;5030138;28;19913;-57
2022/10/09 03:49:06;;;;;;;;;;;;;;;;;;5030258;28;19924;-57
2022/10/09 03:51:32;;;;;;;;;;;;;;;;;;5033707;28;19944;-57
2022/10/09 03:53:57;;;;;;;;;;;;;;;;;;5033161;28;19991;-58
2022/10/09 03:56:22;;;;;;;;;;;;;;;;;;5031523;28;20081;-57
2022/10/09 03:58:48;;;;;;;;;;;;;;;;;;5034255;28;19924;-58
2022/10/09 04:01:13;;;;;;;;;;;;;;;;;;5029558;28;19935;-57
2022/10/09 04:03:38;;;;;;;;;;;;;;;;;;5029701;28;19962;-57
2022/10/09 04:06:04;;;;;;;;;;;;;;;;;;5029847;28;19990;-57
2022/10/09 04:08:29;;;;;;;;;;;;;;;;;;5030124;28;19924;-58
2022/10/09 04:10:58;;;;;;;;;;;;;;;;;;5029794;28;19913;-57
2022/10/09 04:13:23;;;;;;;;;;;;;;;;;;5028958;28;19963;-57
2022/10/09 04:15:50;;;;;;;;;;;;;;;;;;5031881;28;19995;-58
2022/10/09 04:18:15;;;;;;;;;;;;;;;;;;5029808;28;19932;-57
2022/10/09 04:20:43;;;;;;;;;;;;;;;;;;5030043;28;19916;-57
2022/10/09 04:23:08;;;;;;;;;;;;;;;;;;5029359;28;20389;-57
2022/10/09 04:25:34;;;;;;;;;;;;;;;;;;5028079;28;19909;-57
2022/10/09 04:27:59;;;;;;;;;;;;;;;;;;5029743;28;20306;-57
2022/10/09 04:30:24;;;;;;;;;;;;;;;;;;5030064;28;20226;-57
2022/10/09 04:32:49;;;;;;;;;;;;;;;;;;5028869;28;20015;-57
2022/10/09 04:35:15;;;;;;;;;;;;;;;;;;5029315;28;19920;-57
2022/10/09 04:37:41;;;;;;;;;;;;;;;;;;5029665;28;19913;-57
2022/10/09 04:40:06;;;;;;;;;;;;;;;;;;5029779;28;20100;-58
2022/10/09 04:42:31;;;;;;;;;;;;;;;;;;5029307;28;20400;-57
2022/10/09 04:44:57;;;;;;;;;;;;;;;;;;5029391;28;19912;-57
2022/10/09 04:47:22;;;;;;;;;;;;;;;;;;5031967;28;19936;-57
2022/10/09 04:49:47;;;;;;;;;;;;;;;;;;5029540;28;19955;-57
2022/10/09 04:52:13;;;;;;;;;;;;;;;;;;5028919;28;19913;-57
2022/10/09 04:54:38;;;;;;;;;;;;;;;;;;5029090;28;19909;-57
2022/10/09 04:57:03;;;;;;;;;;;;;;;;;;5032779;28;19920;-57
2022/10/09 04:59:29;;;;;;;;;;;;;;;;;;5029938;28;20232;-58
2022/10/09 05:01:54;;;;;;;;;;;;;;;;;;5028015;28;19920;-58
2022/10/09 05:04:19;;;;;;;;;;;;;;;;;;5029647;28;19920;-60
2022/10/09 05:06:44;;;;;;;;;;;;;;;;;;5028013;28;19913;-60
2022/10/09 05:09:10;;;;;;;;;;;;;;;;;;5029719;28;19909;-60
2022/10/09 05:11:35;;;;;;;;;;;;;;;;;;5027649;28;19953;-60
2022/10/09 05:14:00;;;;;;;;;;;;;;;;;;5029204;28;19913;-60
2022/10/09 05:16:27;;;;;;;;;;;;;;;;;;5028938;28;20047;-60
2022/10/09 05:18:54;;;;;;;;;;;;;;;;;;5030304;28;20294;-60
2022/10/09 05:21:19;;;;;;;;;;;;;;;;;;5028975;28;20299;-60
2022/10/09 05:23:45;;;;;;;;;;;;;;;;;;5029153;28;19913;-60
2022/10/09 05:26:12;;;;;;;;;;;;;;;;;;5027461;28;19913;-60
2022/10/09 05:28:37;;;;;;;;;;;;;;;;;;5029644;28;19913;-60
2022/10/09 05:31:03;;;;;;;;;;;;;;;;;;5029502;28;19909;-60
2022/10/09 05:33:28;;;;;;;;;;;;;;;;;;5028862;28;19909;-60
2022/10/09 05:35:55;;;;;;;;;;;;;;;;;;5028752;28;19915;-60
2022/10/09 05:38:21;;;;;;;;;;;;;;;;;;5029083;28;20434;-60
2022/10/09 05:40:51;;;;;;;;;;;;;;;;;;5027383;28;20256;-60
2022/10/09 05:43:16;;;;;;;;;;;;;;;;;;5027541;28;19909;-61
2022/10/09 05:45:42;;;;;;;;;;;;;;;;;;5028617;28;19978;-60
2022/10/09 05:48:07;;;;;;;;;;;;;;;;;;5029498;28;19967;-61
2022/10/09 05:50:32;;;;;;;;;;;;;;;;;;5029734;28;19909;-60
2022/10/09 05:52:57;;;;;;;;;;;;;;;;;;5028604;28;19909;-60
2022/10/09 05:55:24;;;;;;;;;;;;;;;;;;5032265;28;19917;-60
2022/10/09 05:57:51;;;;;;;;;;;;;;;;;;5031678;28;19960;-60
2022/10/09 06:00:16;;;;;;;;;;;;;;;;;;5032993;28;20302;-60
2022/10/09 06:02:41;;;;;;;;;;;;;;;;;;5031824;28;20003;-60
2022/10/09 06:05:07;;;;;;;;;;;;;;;;;;5031603;28;19959;-60
2022/10/09 06:07:32;;;;;;;;;;;;;;;;;;5031348;28;19949;-60
2022/10/09 06:09:57;;;;;;;;;;;;;;;;;;5031384;28;19913;-60
2022/10/09 06:12:22;;;;;;;;;;;;;;;;;;5031301;28;19913;-60
2022/10/09 06:14:48;;;;;;;;;;;;;;;;;;5032132;28;19913;-60
2022/10/09 06:17:13;;;;;;;;;;;;;;;;;;5031999;28;19909;-60
2022/10/09 06:19:38;;;;;;;;;;;;;;;;;;5031871;28;19959;-60
2022/10/09 06:22:03;;;;;;;;;;;;;;;;;;5030874;28;19913;-60
2022/10/09 06:24:29;;;;;;;;;;;;;;;;;;5032161;28;19916;-60
2022/10/09 06:26:54;;;;;;;;;;;;;;;;;;5030718;28;19913;-60
2022/10/09 06:29:20;;;;;;;;;;;;;;;;;;5030388;28;19913;-60
2022/10/09 06:31:45;;;;;;;;;;;;;;;;;;5031284;28;19943;-60
2022/10/09 06:34:10;;;;;;;;;;;;;;;;;;5031299;28;19913;-60
2022/10/09 06:36:35;;;;;;;;;;;;;;;;;;5031410;28;19963;-60
2022/10/09 06:39:02;;;;;;;;;;;;;;;;;;5031260;28;19913;-61
2022/10/09 06:41:28;;;;;;;;;;;;;;;;;;5027523;28;20287;-61
2022/10/09 06:43:54;;;;;;;;;;;;;;;;;;5035226;28;19940;-60
2022/10/09 06:46:21;;;;;;;;;;;;;;;;;;5031595;28;19909;-60
2022/10/09 06:48:46;;;;;;;;;;;;;;;;;;5031996;28;19909;-60
2022/10/09 06:51:13;;;;;;;;;;;;;;;;;;5031930;28;19916;-60
2022/10/09 06:53:39;;;;;;;;;;;;;;;;;;5031041;28;19916;-61
2022/10/09 06:56:05;;;;;;;;;;;;;;;;;;5028201;28;20409;-61
2022/10/09 06:58:31;;;;;;;;;;;;;;;;;;5031795;28;20000;-61
2022/10/09 07:01:02;;;;;;;;;;;;;;;;;;5031388;28;19920;-61
2022/10/09 07:03:28;;;;;;;;;;;;;;;;;;5031050;28;19916;-62
2022/10/09 07:05:53;;;;;;;;;;;;;;;;;;5030292;28;19943;-60
2022/10/09 07:08:19;;;;;;;;;;;;;;;;;;5031266;28;20000;-61
2022/10/09 07:10:44;;;;;;;;;;;;;;;;;;5029760;28;19916;-61
2022/10/09 07:13:10;;;;;;;;;;;;;;;;;;5030247;28;19912;-61
2022/10/09 07:15:35;;;;;;;;;;;;;;;;;;5029180;28;20260;-61
2022/10/09 07:18:01;;;;;;;;;;;;;;;;;;5028604;28;19928;-61
2022/10/09 07:20:26;;;;;;;;;;;;;;;;;;5030669;28;19913;-61
2022/10/09 07:22:51;;;;;;;;;;;;;;;;;;5030159;28;20008;-61
2022/10/09 07:25:17;;;;;;;;;;;;;;;;;;5024775;28;19924;-61
2022/10/09 07:27:42;;;;;;;;;;;;;;;;;;5030451;28;19970;-61
2022/10/09 07:30:07;;;;;;;;;;;;;;;;;;5029253;28;20305;-61
2022/10/09 07:32:33;;;;;;;;;;;;;;;;;;5029440;28;19913;-61
2022/10/09 07:34:58;;;;;;;;;;;;;;;;;;5031071;28;20002;-61
2022/10/09 07:37:23;;;;;;;;;;;;;;;;;;5030910;28;19912;-61
2022/10/09 07:39:48;;;;;;;;;;;;;;;;;;5030931;28;19908;-60
2022/10/09 07:42:14;;;;;;;;;;;;;;;;;;5026658;28;19917;-61
2022/10/09 07:44:39;;;;;;;;;;;;;;;;;;5030842;28;20386;-60
2022/10/09 07:47:04;;;;;;;;;;;;;;;;;;5030335;28;19909;-60
2022/10/09 07:49:30;;;;;;;;;;;;;;;;;;5028312;28;19913;-62
2022/10/09 07:51:55;;;;;;;;;;;;;;;;;;5028732;28;19940;-62
2022/10/09 07:54:20;;;;;;;;;;;;;;;;;;5030757;28;19912;-59
2022/10/09 07:56:45;;;;;;;;;;;;;;;;;;5029614;28;20303;-60
2022/10/09 07:59:12;;;;;;;;;;;;;;;;;;5030542;28;19957;-61
2022/10/09 08:01:37;;;;;;;;;;;;;;;;;;5030050;28;20338;-61
2022/10/09 08:04:03;;;;;;;;;;;;;;;;;;5030832;28;19917;-61
2022/10/09 08:06:29;;;;;;;;;;;;;;;;;;5030051;28;19916;-61
2022/10/09 08:08:55;;;;;;;;;;;;;;;;;;5029734;28;19909;-60
2022/10/09 08:11:20;;;;;;;;;;;;;;;;;;5026855;28;19971;-60
2022/10/09 08:13:46;;;;;;;;;;;;;;;;;;5030293;28;20052;-61
2022/10/09 08:16:12;;;;;;;;;;;;;;;;;;5029727;28;20432;-61
2022/10/09 08:18:38;;;;;;;;;;;;;;;;;;5030094;28;20442;-61
2022/10/09 08:21:24;;;;;;;;;;;;;;;;;;5028646;28;19912;-61
2022/10/09 08:23:54;;;;;;;;;;;;;;;;;;5028572;28;20275;-61
2022/10/09 08:26:20;;;;;;;;;;;;;;;;;;5028723;28;19975;-61
2022/10/09 08:28:53;;;;;;;;;;;;;;;;;;5029200;28;19916;-61
2022/10/09 08:31:19;;;;;;;;;;;;;;;;;;5029651;28;20417;-60
2022/10/09 08:33:44;;;;;;;;;;;;;;;;;;5029914;28;19913;-61
2022/10/09 08:36:10;;;;;;;;;;;;;;;;;;5028190;28;20428;-61
2022/10/09 08:38:36;;;;;;;;;;;;;;;;;;5030281;28;19913;-61
2022/10/09 08:41:03;;;;;;;;;;;;;;;;;;5028081;28;19967;-61
2022/10/09 08:43:30;;;;;;;;;;;;;;;;;;5028362;28;20024;-61
2022/10/09 08:45:57;;;;;;;;;;;;;;;;;;5028444;28;19909;-61
2022/10/09 08:48:24;;;;;;;;;;;;;;;;;;5027358;28;19992;-61
2022/10/09 08:50:50;;;;;;;;;;;;;;;;;;5028705;28;19920;-61
2022/10/09 08:53:26;;;;;;;;;;;;;;;;;;5026941;28;19909;-61
2022/10/09 08:55:56;;;;;;;;;;;;;;;;;;5027277;28;20416;-60
2022/10/09 08:58:23;;;;;;;;;;;;;;;;;;5029393;28;20502;-61
2022/10/09 09:00:53;;;;;;;;;;;;;;;;;;5030554;28;19917;-61
2022/10/09 09:03:30;;;;;;;;;;;;;;;;;;5029084;28;19913;-61
2022/10/09 09:06:14;;;;;;;;;;;;;;;;;;5027655;28;20413;-60
2022/10/09 09:09:00;;;;;;;;;;;;;;;;;;5022968;28;19920;-61
2022/10/09 09:11:37;;;;;;;;;;;;;;;;;;5024029;28;19913;-60
2022/10/09 09:14:18;;;;;;;;;;;;;;;;;;5024956;28;20225;-61
2022/10/09 09:16:53;;;;;;;;;;;;;;;;;;5028147;28;19913;-60
2022/10/09 09:19:30;;;;;;;;;;;;;;;;;;5025855;28;20101;-58
2022/10/09 09:21:57;;;;;;;;;;;;;;;;;;5028704;28;19909;-58
2022/10/09 09:24:34;;;;;;;;;;;;;;;;;;5028543;28;19909;-58
2022/10/09 09:27:02;;;;;;;;;;;;;;;;;;5023600;28;19913;-60
2022/10/09 09:29:28;;;;;;;;;;;;;;;;;;5030867;28;20375;-59
2022/10/09 09:31:57;;;;;;;;;;;;;;;;;;5032342;28;19921;-61
2022/10/09 09:34:25;;;;;;;;;;;;;;;;;;5033217;28;19920;-61
2022/10/09 09:36:52;;;;;;;;;;;;;;;;;;5036929;28;20359;-60
2022/10/09 09:39:20;;;;;;;;;;;;;;;;;;5033453;28;19967;-60
2022/10/09 09:41:45;;;;;;;;;;;;;;;;;;5032708;28;20296;-58
2022/10/09 09:44:11;;;;;;;;;;;;;;;;;;5033521;28;19909;-58
2022/10/09 09:46:37;;;;;;;;;;;;;;;;;;5032794;28;20006;-58
2022/10/09 09:49:13;;;;;;;;;;;;;;;;;;5031497;28;19971;-58
2022/10/09 09:51:38;;;;;;;;;;;;;;;;;;5030756;28;19944;-58
2022/10/09 09:54:06;;;;;;;;;;;;;;;;;;5033577;28;19948;-58
2022/10/09 09:56:39;;;;;;;;;;;;;;;;;;5032493;28;19948;-58
2022/10/09 09:59:05;;;;;;;;;;;;;;;;;;5029805;28;19924;-58
2022/10/09 10:01:30;;;;;;;;;;;;;;;;;;5032276;28;19916;-58
2022/10/09 10:03:57;;;;;;;;;;;;;;;;;;5031917;28;19913;-59
2022/10/09 10:06:43;;;;;;;;;;;;;;;;;;5030271;28;19924;-59
2022/10/09 10:09:15;;;;;;;;;;;;;;;;;;5037288;28;20039;-59
2022/10/09 10:11:53;;;;;;;;;;;;;;;;;;5036859;28;19908;-59
2022/10/09 10:14:18;;;;;;;;;;;;;;;;;;5031575;28;20136;-60
2022/10/09 10:16:47;;;;;;;;;;;;;;;;;;5027958;28;20406;-59
2022/10/09 10:19:25;;;;;;;;;;;;;;;;;;5030929;28;19975;-60
2022/10/09 10:22:05;;;;;;;;;;;;;;;;;;5029619;28;19913;-59
2022/10/09 10:24:37;;;;;;;;;;;;;;;;;;5032233;28;20370;-59
2022/10/09 10:27:08;;;;;;;;;;;;;;;;;;5030131;28;19916;-59
2022/10/09 10:29:40;;;;;;;;;;;;;;;;;;5028785;28;19955;-59
2022/10/09 10:32:16;;;;;;;;;;;;;;;;;;5031721;28;20321;-59
2022/10/09 10:34:41;;;;;;;;;;;;;;;;;;5031777;28;19963;-59
2022/10/09 10:37:13;;;;;;;;;;;;;;;;;;5031680;28;19912;-59
2022/10/09 10:39:49;;;;;;;;;;;;;;;;;;5028934;28;19920;-59
2022/10/09 10:42:20;;;;;;;;;;;;;;;;;;5031652;28;19995;-59
2022/10/09 10:44:53;;;;;;;;;;;;;;;;;;5031853;28;20329;-59
2022/10/09 10:47:20;;;;;;;;;;;;;;;;;;5026480;28;19912;-54
2022/10/09 10:49:46;;;;;;;;;;;;;;;;;;5031558;28;19916;-57
2022/10/09 10:52:30;;;;;;;;;;;;;;;;;;5031420;28;19909;-56
2022/10/09 10:55:08;;;;;;;;;;;;;;;;;;5031505;28;19916;-55
2022/10/09 10:57:39;;;;;;;;;;;;;;;;;;5031532;28;19963;-57
2022/10/09 11:00:19;;;;;;;;;;;;;;;;;;5034333;28;19919;-56
2022/10/09 11:02:51;;;;;;;;;;;;;;;;;;5031235;28;20181;-56
2022/10/09 11:05:35;;;;;;;;;;;;;;;;;;5031057;28;20379;-56
2022/10/09 11:08:00;;;;;;;;;;;;;;;;;;5049510;28;19909;-54
2022/10/09 11:10:25;;;;;;;;;;;;;;;;;;5032455;28;20355;-55
2022/10/09 11:13:05;;;;;;;;;;;;;;;;;;5030547;28;20210;-55
2022/10/09 11:15:50;;;;;;;;;;;;;;;;;;5031419;28;19963;-55
2022/10/09 11:18:35;;;;;;;;;;;;;;;;;;5027474;28;19923;-56
2022/10/09 11:21:19;;;;;;;;;;;;;;;;;;5031359;28;20354;-55
2022/10/09 11:23:50;;;;;;;;;;;;;;;;;;5029492;28;20295;-56
2022/10/09 11:26:33;;;;;;;;;;;;;;;;;;5030606;28;19909;-56
2022/10/09 11:29:05;;;;;;;;;;;;;;;;;;5031291;28;19913;-55
2022/10/09 11:31:37;;;;;;;;;;;;;;;;;;5029985;28;19924;-55
2022/10/09 11:34:06;;;;;;;;;;;;;;;;;;5030199;28;20378;-59
2022/10/09 11:36:41;;;;;;;;;;;;;;;;;;5028226;28;19913;-59
2022/10/09 11:39:27;;;;;;;;;;;;;;;;;;5028858;28;20356;-59
2022/10/09 11:41:53;;;;;;;;;;;;;;;;;;5031647;28;19912;-59
2022/10/09 11:44:30;;;;;;;;;;;;;;;;;;5025729;28;20397;-57
2022/10/09 11:47:14;;;;;;;;;;;;;;;;;;5030562;28;20317;-59
2022/10/09 11:49:39;;;;;;;;;;;;;;;;;;5028039;28;19908;-58
2022/10/09 11:52:15;;;;;;;;;;;;;;;;;;5029626;28;19991;-59
2022/10/09 11:54:41;;;;;;;;;;;;;;;;;;5027208;28;19940;-59
2022/10/09 11:57:06;;;;;;;;;;;;;;;;;;5036802;28;20014;-59
2022/10/09 11:59:34;;;;;;;;;;;;;;;;;;5037154;28;19920;-59
2022/10/09 12:02:11;;;;;;;;;;;;;;;;;;5030191;28;19915;-59
2022/10/09 12:04:37;;;;;;;;;;;;;;;;;;5030554;28;19909;-59
2022/10/09 12:07:03;;;;;;;;;;;;;;;;;;5029989;28;19970;-58
2022/10/09 12:09:29;;;;;;;;;;;;;;;;;;5030770;28;19923;-58
2022/10/09 12:11:58;;;;;;;;;;;;;;;;;;5029838;28;19913;-58
2022/10/09 12:14:24;;;;;;;;;;;;;;;;;;5034795;28;20004;-59
2022/10/09 12:16:50;;;;;;;;;;;;;;;;;;5028442;28;19909;-59
2022/10/09 12:19:17;;;;;;;;;;;;;;;;;;5028510;28;19939;-58
2022/10/09 12:21:46;;;;;;;;;;;;;;;;;;5028717;28;20263;-59
2022/10/09 12:24:15;;;;;;;;;;;;;;;;;;5028839;28;19967;-59
2022/10/09 12:26:41;;;;;;;;;;;;;;;;;;5028901;28;19915;-59
2022/10/09 12:29:13;;;;;;;;;;;;;;;;;;5029120;28;19909;-59
2022/10/09 12:31:40;;;;;;;;;;;;;;;;;;5027899;28;19913;-58
2022/10/09 12:34:23;;;;;;;;;;;;;;;;;;5027920;28;19923;-58
2022/10/09 12:36:49;;;;;;;;;;;;;;;;;;5027694;28;20386;-58
2022/10/09 12:39:18;;;;;;;;;;;;;;;;;;5029432;28;19983;-58
2022/10/09 12:41:44;;;;;;;;;;;;;;;;;;5030844;28;19913;-59
2022/10/09 12:44:24;;;;;;;;;;;;;;;;;;5029557;28;19970;-59
2022/10/09 12:46:50;;;;;;;;;;;;;;;;;;5029244;28;19996;-59
2022/10/09 12:49:18;;;;;;;;;;;;;;;;;;5029872;28;20007;-59
2022/10/09 12:51:49;;;;;;;;;;;;;;;;;;5028917;28;19959;-59
2022/10/09 12:54:14;;;;;;;;;;;;;;;;;;5031925;28;19909;-59
2022/10/09 12:56:39;;;;;;;;;;;;;;;;;;5031681;28;19912;-59
2022/10/09 12:59:05;;;;;;;;;;;;;;;;;;5029714;28;20395;-58
2022/10/09 13:01:32;;;;;;;;;;;;;;;;;;5029172;28;19916;-58
2022/10/09 13:03:58;;;;;;;;;;;;;;;;;;5029980;28;19913;-58
2022/10/09 13:06:31;;;;;;;;;;;;;;;;;;5033705;28;19908;-58
2022/10/09 13:08:58;;;;;;;;;;;;;;;;;;5033773;28;20400;-58
2022/10/09 13:11:32;;;;;;;;;;;;;;;;;;5032911;28;20494;-58
2022/10/09 13:13:57;;;;;;;;;;;;;;;;;;5033651;28;19909;-58
2022/10/09 13:16:23;;;;;;;;;;;;;;;;;;5033439;28;19909;-59
2022/10/09 13:18:58;;;;;;;;;;;;;;;;;;5032248;28;19924;-58
2022/10/09 13:21:33;;;;;;;;;;;;;;;;;;5034238;28;19999;-58
2022/10/09 13:24:09;;;;;;;;;;;;;;;;;;5031871;28;20231;-58
2022/10/09 13:26:34;;;;;;;;;;;;;;;;;;5029882;28;19920;-58
2022/10/09 13:29:01;;;;;;;;;;;;;;;;;;5033630;28;19909;-58
2022/10/09 13:31:26;;;;;;;;;;;;;;;;;;5029422;28;20229;-58
2022/10/09 13:33:52;;;;;;;;;;;;;;;;;;5032799;28;19947;-58
2022/10/09 13:36:18;;;;;;;;;;;;;;;;;;5031844;28;19948;-58
2022/10/09 13:38:43;;;;;;;;;;;;;;;;;;5035042;28;20382;-58
2022/10/09 13:41:13;;;;;;;;;;;;;;;;;;5030942;28;20298;-59
2022/10/09 13:43:38;;;;;;;;;;;;;;;;;;5030026;28;20302;-58
2022/10/09 13:46:04;;;;;;;;;;;;;;;;;;5030190;28;19919;-58
2022/10/09 13:48:30;;;;;;;;;;;;;;;;;;5031492;28;19916;-58
2022/10/09 13:50:57;;;;;;;;;;;;;;;;;;5030534;28;19919;-58
2022/10/09 13:53:23;;;;;;;;;;;;;;;;;;5031234;28;19959;-58
2022/10/09 13:55:50;;;;;;;;;;;;;;;;;;5031113;28;20301;-58
2022/10/09 13:58:15;;;;;;;;;;;;;;;;;;5029658;28;19921;-58
2022/10/09 14:00:43;;;;;;;;;;;;;;;;;;5031826;28;19909;-58
2022/10/09 14:03:08;;;;;;;;;;;;;;;;;;5031056;28;19923;-58
2022/10/09 14:05:33;;;;;;;;;;;;;;;;;;5031005;28;20011;-59
2022/10/09 14:07:58;;;;;;;;;;;;;;;;;;5031167;28;20378;-58
2022/10/09 14:10:24;;;;;;;;;;;;;;;;;;5031603;28;20001;-58
2022/10/09 14:12:50;;;;;;;;;;;;;;;;;;5030555;28;19909;-59
2022/10/09 14:15:16;;;;;;;;;;;;;;;;;;5030514;28;19955;-58
2022/10/09 14:17:41;;;;;;;;;;;;;;;;;;5028779;28;20371;-59
2022/10/09 14:20:06;;;;;;;;;;;;;;;;;;5031577;28;19919;-58
2022/10/09 14:22:32;;;;;;;;;;;;;;;;;;5031434;28;19931;-59
2022/10/09 14:24:57;;;;;;;;;;;;;;;;;;5033426;28;19967;-59
2022/10/09 14:27:22;;;;;;;;;;;;;;;;;;5032229;28;19916;-59
2022/10/09 14:29:47;;;;;;;;;;;;;;;;;;5032259;28;20594;-59
2022/10/09 14:32:13;;;;;;;;;;;;;;;;;;5031765;28;19909;-59
2022/10/09 14:34:38;;;;;;;;;;;;;;;;;;5032316;28;20416;-59
2022/10/09 14:37:04;;;;;;;;;;;;;;;;;;5034299;28;20366;-59
2022/10/09 14:39:29;;;;;;;;;;;;;;;;;;5034464;28;19913;-59
2022/10/09 14:41:54;;;;;;;;;;;;;;;;;;5031274;28;19916;-59
2022/10/09 14:44:20;;;;;;;;;;;;;;;;;;5031366;28;19909;-58
2022/10/09 14:46:45;;;;;;;;;;;;;;;;;;5029891;28;20275;-59
2022/10/09 14:49:10;;;;;;;;;;;;;;;;;;5032128;28;19913;-59
2022/10/09 14:51:37;;;;;;;;;;;;;;;;;;5029761;28;19974;-59
2022/10/09 14:54:03;;;;;;;;;;;;;;;;;;5028659;28;19913;-59
2022/10/09 14:56:28;;;;;;;;;;;;;;;;;;5031538;28;20398;-59
2022/10/09 14:58:53;;;;;;;;;;;;;;;;;;5031631;28;19931;-59
2022/10/09 15:01:20;;;;;;;;;;;;;;;;;;5031115;28;19916;-58
2022/10/09 15:03:47;;;;;;;;;;;;;;;;;;5030847;28;19913;-58
2022/10/09 15:06:12;;;;;;;;;;;;;;;;;;5025216;28;19992;-59
2022/10/09 15:08:39;;;;;;;;;;;;;;;;;;5031617;28;19912;-59
2022/10/09 15:11:05;;;;;;;;;;;;;;;;;;5031718;28;19909;-58
2022/10/09 15:13:32;;;;;;;;;;;;;;;;;;5030822;28;20334;-58
2022/10/09 15:15:58;;;;;;;;;;;;;;;;;;5029912;28;20497;-58
2022/10/09 15:18:24;;;;;;;;;;;;;;;;;;5029580;28;20004;-58
2022/10/09 15:20:50;;;;;;;;;;;;;;;;;;5029710;28;19948;-58
2022/10/09 15:23:15;;;;;;;;;;;;;;;;;;5027447;28;19960;-58
2022/10/09 15:25:46;;;;;;;;;;;;;;;;;;5030541;28;19913;-58
2022/10/09 15:28:12;;;;;;;;;;;;;;;;;;5031085;28;19909;-58
2022/10/09 15:30:43;;;;;;;;;;;;;;;;;;5031374;28;19915;-58
2022/10/09 15:33:08;;;;;;;;;;;;;;;;;;5028622;28;19999;-58
2022/10/09 15:35:34;;;;;;;;;;;;;;;;;;5032692;28;20389;-58
2022/10/09 15:37:59;;;;;;;;;;;;;;;;;;5033330;28;20421;-58
2022/10/09 15:40:24;;;;;;;;;;;;;;;;;;5031339;28;19955;-58
2022/10/09 15:42:50;;;;;;;;;;;;;;;;;;5029931;28;20268;-57
2022/10/09 15:45:15;;;;;;;;;;;;;;;;;;5027073;28;20390;-59
2022/10/09 15:47:40;;;;;;;;;;;;;;;;;;5029272;28;20379;-59
2022/10/09 15:50:06;;;;;;;;;;;;;;;;;;5031362;28;19916;-58
2022/10/09 15:52:32;;;;;;;;;;;;;;;;;;5029946;28;20382;-60
2022/10/09 15:54:57;;;;;;;;;;;;;;;;;;5029113;28;20382;-60
2022/10/09 15:57:22;;;;;;;;;;;;;;;;;;5030133;28;19913;-60
2022/10/09 15:59:48;;;;;;;;;;;;;;;;;;5030273;28;19913;-60
2022/10/09 16:02:13;;;;;;;;;;;;;;;;;;5023839;28;20012;-60
2022/10/09 16:04:38;;;;;;;;;;;;;;;;;;5035367;28;19916;-60
2022/10/09 16:07:03;;;;;;;;;;;;;;;;;;5030476;28;19909;-60
2022/10/09 16:09:33;;;;;;;;;;;;;;;;;;5030705;28;19917;-60
2022/10/09 16:11:58;;;;;;;;;;;;;;;;;;5030054;28;20322;-59
2022/10/09 16:14:26;;;;;;;;;;;;;;;;;;5030676;28;19915;-60
2022/10/09 16:16:51;;;;;;;;;;;;;;;;;;5032045;28;19909;-60
2022/10/09 16:19:16;;;;;;;;;;;;;;;;;;5040548;28;19912;-60
2022/10/09 16:21:42;;;;;;;;;;;;;;;;;;5028422;28;19909;-60
2022/10/09 16:24:07;;;;;;;;;;;;;;;;;;5029553;28;19916;-60
2022/10/09 16:26:33;;;;;;;;;;;;;;;;;;5030056;28;19909;-59
2022/10/09 16:28:58;;;;;;;;;;;;;;;;;;5030283;28;20371;-59
2022/10/09 16:31:25;;;;;;;;;;;;;;;;;;5029517;28;19996;-59
2022/10/09 16:33:51;;;;;;;;;;;;;;;;;;5032027;28;19909;-60
2022/10/09 16:36:16;;;;;;;;;;;;;;;;;;5035080;28;19916;-59
2022/10/09 16:38:41;;;;;;;;;;;;;;;;;;5028627;28;19920;-64
2022/10/09 16:41:08;;;;;;;;;;;;;;;;;;5030876;28;20379;-60
2022/10/09 16:43:33;;;;;;;;;;;;;;;;;;5026984;28;19909;-59
2022/10/09 16:46:11;;;;;;;;;;;;;;;;;;5029788;28;20396;-60
2022/10/09 16:48:36;;;;;;;;;;;;;;;;;;5026959;28;19940;-60